Timeline UpdatesTrip UpdatesNews PostsPvt PostsTravel TipsAdmin PostsConv PostsFollowed PostsChat RequestsBlog PostsPNR Posts

Disclaimer
Search
 
 
Fri Jul 25, 2014 19:12:40 ISTHomeTrainsΣChainsAtlasPNRForumGalleryNewsFAQTripsMembersLoginFeedback
No Recent News for this Train
Other Trains in the News **new
Latest...
.
Wed Nov 13, 2013 (07:25AM)
⇐ Return Journey: Train# 16687

16688/Navyug Express

Dec 10 2013 (10:22PM)
Change Departure Station:
Change Arrival Station:
Post a Train Travel TipPost a Train Travel Tip **new
Post a Comment/Question/Picture/VideoPost a Comment/Question/Picture/Video
Pantry/Catering
✓ Pantry Car Avbl
✓ Catering Avbl
Good Food
RSA - Rake Sharing
NO RSA
Rake/Coach Composition
ED- MAQ ENG-SLR-UR-UR-A1-B2-B1-S1-S2-S3-S4-S5-PC-SLR; Entry# 962626; ED TEN: [S6-S7-S8-S9-A2-UR-SLR ]; JAT - ED- ENG-SLR-UR-UR-A1-B2-B1-S1-S2-S3-S4-S5-PC-SLR- [S6-S7-S8-S9-A2-UR-SLR ]
Loco
JAT-NDLS WDM 3A TKD-SHED WAP-4 (NDLS 2 SRR) ERS WDM 3A SRR-MAQ
News    PNR    Forum    Time-Table    Availability    Fare Chart    Map    Arr/Dep History    Trips    Gallery    ΣChains    X/O    Timeline    
Travel Time: 40h 42m    25 halts    Distance: 2161 km    Avg Speed: 53 km/hr
Type: Mail/Express
Zone: SR/Southern
Departs @ 03:00
Platform# 1
      S
Bhopal Junction/BPL 
Arrives @ 19:42 +1 night
Platform# ???
S      
Thalassery/TLY 

25 halts. 314 intermediate Stations between Bhopal Junction and Thalassery

Show ALL intermediate Stations  Show Old Time-Table

#CodeStation NameX/OArrivesAvgDepartsAvgHaltPFDay#KmSpeedElevZoneAddress
1JATJammu Tawi (3)  -23:45-21-1295.365337mNRJammu 180002, Jammu and Kashmir
2SMBXSamba (2)  00:15-00:17-2m12-1262.764365mNRDist. Samba, Jammu and Kashmir
3KTHUKathua (2)  00:58-01:00-2m22-1219.049396mNRdistt. kathua, Jammu and Kashmir
4MDPBMadhopur Punjab (2)  01:10-01:12-2m12-1210.956357mNRMadhopur, Punjab
5PTKCPathankot Cantt (3)  01:28-01:33-5m12-1195.957328mNRPathankot By Pass Ph:0186-2251594, Punjab
6MEXMukerian (3)  02:15-02:17-2m12-1156.053257mNRMukerian distt. hosiharpur, Punjab
7DZADasuya (2)X  02:34-02:36-2m22-1141.058251mNRDasuya distt. hoshiarpur, Punjab
8TDOTanda Urmar (3)  02:52-02:54-2m22-1125.662239mNRUrmar Tanda, Punjab
9JRCJalandhar Cantt. Junction (3)X  03:35-03:40-5m32-1083.454239mNRNear Rama Mandi, Punjab
10PGWPhagwara Junction (3)  03:58-04:00-2m12-1067.175245mNRPhagwara, Punjab
11PHRPhillaur Junction (3)X  04:18-04:20-2m12-1044.520246mNRPhillaur, Punjab
12LDHLudhiana Junction (7)X  05:00-05:15-15m52-1031.463246mNRLudhiana 141001, Punjab
13QRPKila Raipur (1)  05:32-05:34-2m12-1013.751262mNRDelhon Pakhowal Rd, Punjab
14AHHAhmadgarh (1)  05:43-05:45-2m12-1006.043256mNRAhmedgarh, Punjab
15METMalerkotla (2)  06:13-06:15-2m12-986.250248mNRMalerkotla., Punjab
16DUIDhuri Junction (4)X  06:35-07:00-25m--2-969.464248mNRDhuri, Punjab
17SAGSangrur (2)X  07:15-07:17-2m12-953.335239mNRSangrur, Punjab
18SFMSunam (1)  07:39-07:41-2m12-940.571235mNRSunam, Punjab
19LHALehra Gaga (1)  07:59-08:01-2m12-919.219227mNRSangrur, Punjab
20JHLJakhal Junction  08:55-09:00-5m--2-902.367225mNRJakhal, Haryana
21TUNTohana (2)  09:11-09:13-2m--2-890.161232mNRTohana, Haryana
22NRWNarwana Junction (4)  09:38-09:40-2m--2-864.665235mNRWay to Narwana, Haryana
23UCAUchana  09:54-09:56-2m--2-849.458225mNRDistrict Jind, Haryana
24BZOBarsola  10:06-10:08-2m--2-839.834224mNRDistrict Jind, Haryana
25JINDJind Junction (3)X  10:24-10:27-3m--2-830.767222mNR126102., Haryana
26JNAJulana  10:50-10:52-2m--2-805.036226mNRJulana, Haryana
27ROKRohtak Junction (3)  11:45-11:47-2m--2-773.676220mNRRohtak, Haryana
28BGZBahadurgarh  12:19-12:21-2m--2-733.334220mNRBahadurgarh, Haryana
29SSBShakur Basti  12:56-12:58-2m--2-713.418216mNRPitampura, Delhi NCT
30NDLSNew Delhi (16)X13:35-14:30-55m92-702.529215mNRNew Delhi, Delhi NCT
31NZMDelhi Hazrat Nizamuddin (7)  14:45-14:55-10m42-695.229209mNRNizamuddin East/Sarai KaleKhan Bus Terminal, Delhi NCT
32FDBFaridabad (4)X  15:38-15:40-2m32-674.449206mNRold Faridabad, Haryana
33AGCAgra Cantt. (6)  19:05-19:10-5m12-507.590174mNCRAgra, Uttar Pradesh
34DHODholpur Junction (3)X  19:45-19:47-2m22-454.962177mNCRDholpur, Rajasthan
35GWLGwalior Junction (4)  20:50-20:55-5m12-389.562214mNCRGwalior, Madhya Pradesh
36JHSJhansi Junction (7)X  22:30-22:40-10m--2-291.869259mNCRJhansi, Uttar Pradesh
37BPL»Bhopal Junction (6)»X  02:55-03:00-5m130.038497mWCRBhopal, Madhya Pradesh
38ETItarsi Junction (7)X  05:25-05:30-5m--391.758329mWCRItarsi 461111, Madhya Pradesh
39NGPNagpur Junction (8)  10:35-10:45-10m23388.974314mCRNagpur 440001, Maharashtra
40SEGMSewagram Junction (5)  11:47-11:49-2m--3465.166279mCRWardha, Maharashtra
41CDChandrapur Maharashtra (3)  13:36-13:38-2m13583.716194mCRChandrapur 442401, Maharashtra
42BPQBalharshah Junction (5)  14:30-14:40-10m33597.474188mCRBallarpur. Ph : 07172 - 240341, Maharashtra
43RDMRamagundam (3)  16:35-16:37-2m23739.250170mSCRKarimnagar Dist. Ph : 08728 - 255237, Telangana
44WLWarangal (3)X  18:38-18:43-5m13840.467271mSCRWarangal., Telangana
45KMTKhammam (2)X  20:19-20:20-1m13948.031118mSCRKhammam 507001, Telangana
46BZAVijayawada Junction (10)X  23:35-23:45-10m731048.37524mSCRVijayawada 520001, Andhra Pradesh
47TELTenali Junction (5)X  00:10-00:12-2m241079.66916mSCRTel: 08644-227834, Andhra Pradesh
48OGLOngole (3)  01:45-01:47-2m341186.67712mSCROngole, Andhra Pradesh
49NLRNellore (4)  03:18-03:20-2m341303.43421mSCRNellore, Andhra Pradesh
50GDRGudur Junction (3)  04:28-04:30-2m141341.87119mSCRGudur, Andhra Pradesh
51RURenigunta Junction (5)X  05:40-05:50-10m241425.240113mSCRChittoor District, Andhra Pradesh
52TPTYTirupati Main (5)  06:05-06:10-5m241435.155150mSCRChittoor Distt, Andhra Pradesh
53CTOChittoor (3)  07:28-07:30-2m--41507.023305mSCR517001., Andhra Pradesh
54KPDKatpadi Junction (5)X  08:55-08:57-2m341540.171213mSRVellore 632007, Tamil Nadu
55JTJJolarpettai Junction (5)X  10:08-10:10-2m--41623.980405mSRJolarpettai, Tamil Nadu
56SASalem Junction (6)  11:40-11:45-5m--41744.153283mSRSalem, Tamil Nadu
57EDErode Junction (4)12:55-13:20-25m341805.870175mSRErode ph.no: 0424-2256111, Tamil Nadu
58TUPTiruppur (2)X  14:03-14:05-2m141855.855305mSRTiruppur. Ph:0421-2200450, Tamil Nadu
59CBECoimbatore Main Junction (6)X  15:00-15:05-5m141906.445416mSRCoimbatore 641001, Tamil Nadu
60PGTPalakkad Junction (4)X  16:20-16:25-5m141962.15384mSRPalghat Tel: 0491 2555231, Kerala
61SRRShoranur Junction (7)17:15-17:25-10m242006.46526mSRShoranur ph.no 0466-2222913, Kerala
62CLTKozhikode Main (4)X  18:45-18:50-5m442092.77911mSRCalicut Tel: 0495 2701234, Kerala
63TLY•Thalassery (2)•  19:42-19:45-3m--42161.1509mSRKannur, Kerala
64CANKannur Main (3)XO  20:10-20:15-5m142181.87114mSRKannur Tel: 0497 2705555, Kerala
65KGQKasaragod (3)  21:28-21:30-2m242267.83718mSRTel: 04994 220800, Kerala
66MAQMangalore Central (4)  22:45--242313.6-14mSRMangalore 575001, Karnataka
Scroll to Top
Scroll to Bottom